Historique des mesures à Cassis (13260), France
Quotidien Résumé Mai 14, 2017 Unités:  Métrique    US   Métrique/US
« Précédent (Jour)
Suivant (Jour) »
Quotidien Hebdomadaire Mensuel Annuel Période au choix
  Maximum: Minimum: Moyenne:
Température: TemperatureC °C 13.9 °C 18.7 °C
Point de rosée: DewpointC °C 10.7 °C 12.3 °C
Humidité: Humidity % 45 % 64 %
Vitesse du vent: 0 km/h 0 km/h 5.3 km/h
Rafales: 0 km/h - -
Vent:- - SSW
Pression: PressurehPa hPa 1015.8 hPa -
Précipitations: 0.0 mm    
Historical Graphs
 
 
Mesures pour : Mai 14, 2017
Heure Temperature Point de rosée Pression Vent Vitesse du vent Rafales Humidité Pluie (par heure) Conditions
TemperatureC °C DewpointC °C PressurehPa hPa Calm     Humidity % HourlyPrecipMM mm SoftwareType W/m2
00:10 15.8 °C 12.6 °C 1015.8 hPa Calm     81 % 0.0 mm open2300-1.11 W/m2
01:10 15.6 °C 12.6 °C 1015.8 hPa Calm   2.3 km/h 82 % 0.0 mm open2300-1.11 W/m2
02:10 15.6 °C 12.6 °C 1015.8 hPa WNW 13.2 km/h 13.2 km/h 82 % 0.0 mm open2300-1.11 W/m2
03:10 15.4 °C 12.2 °C 1015.8 hPa Calm     81 % 0.0 mm open2300-1.11 W/m2
04:11 14.9 °C 11.5 °C 1016.1 hPa Calm     80 % 0.0 mm open2300-1.11 W/m2
05:10 14.3 °C 11.1 °C 1016.1 hPa Calm     81 % 0.0 mm open2300-1.11 W/m2
06:10 13.9 °C 10.7 °C 1016.5 hPa Calm     81 % 0.0 mm open2300-1.11 W/m2
07:11 14.7 °C 11.7 °C 1017.2 hPa Calm     82 % 0.0 mm open2300-1.11 W/m2
08:10 16.9 °C 12.8 °C 1017.8 hPa North 4.7 km/h 4.7 km/h 77 % 0.0 mm open2300-1.11 W/m2
09:10 17.8 °C 13.5 °C 1017.8 hPa Calm     76 % 0.0 mm open2300-1.11 W/m2
10:11 18.7 °C 14.4 °C 1018.5 hPa Calm     76 % 0.0 mm open2300-1.11 W/m2
11:10 22.3 °C 16.1 °C 1018.8 hPa SSE 2.9 km/h 6.4 km/h 68 % 0.0 mm open2300-1.11 W/m2
12:10 23.2 °C 16.0 °C 1019.5 hPa SSW 8 km/h 9.8 km/h 64 % 0.0 mm open2300-1.11 W/m2
13:10 23.9 °C 15.4 °C 1019.5 hPa West 3.4 km/h 30.1 km/h 59 % 0.0 mm open2300-1.11 W/m2
14:10 25.2 °C 14.1 °C 1019.5 hPa WNW 4.2 km/h 23 km/h 50 % 0.0 mm open2300-1.11 W/m2
15:10 25.0 °C 12.6 °C 1019.2 hPa WNW 33.2 km/h 33.2 km/h 46 % 0.0 mm open2300-1.11 W/m2
16:10 24.6 °C 11.8 °C 1019.2 hPa NNE 5.1 km/h 28.5 km/h 45 % 0.0 mm open2300-1.11 W/m2
17:10 24.4 °C 12.3 °C 1018.8 hPa West 9.3 km/h 11.6 km/h 47 % 0.0 mm open2300-1.11 W/m2
18:10 23.1 °C 14.6 °C 1018.8 hPa Calm   8.9 km/h 59 % 0.0 mm open2300-1.11 W/m2
19:10 21.9 °C 13.8 °C 1018.8 hPa WNW 7.6 km/h 7.6 km/h 60 % 0.0 mm open2300-1.11 W/m2
20:10 21.4 °C 12.2 °C 1018.8 hPa North 6.4 km/h 13.2 km/h 56 % 0.0 mm open2300-1.11 W/m2
21:10 19.9 °C 11.4 °C 1019.5 hPa NNW 22 km/h 22 km/h 58 % 0.0 mm open2300-1.11 W/m2
22:10 19.6 °C 11.7 °C 1020.2 hPa NW 7.6 km/h 17.4 km/h 60 % 0.0 mm open2300-1.11 W/m2
23:10 20.3 °C 10.7 °C 1020.5 hPa North 3.4 km/h 15.6 km/h 54 % 0.0 mm open2300-1.11 W/m2
Observations météo à CASSIS
WU-History script by Weather Underground - 1 mb